createdAt,value
2019-01-29T05:00:52.678Z,20.36
2019-01-29T05:05:53.196Z,19.19
2019-01-29T05:10:53.233Z,19.01
2019-01-29T05:15:52.214Z,19.00
2019-01-29T05:20:53.279Z,19.19
2019-01-29T05:25:53.441Z,2.85
2019-01-29T05:30:53.399Z,2.05
2019-01-29T05:35:53.162Z,1.76
2019-01-29T05:40:53.212Z,1.75
2019-01-29T05:45:52.221Z,1.76
2019-01-29T05:50:53.469Z,1.75
2019-01-29T05:55:53.430Z,1.66
2019-01-29T06:00:52.174Z,1.49
2019-01-29T06:05:51.402Z,1.56
2019-01-29T06:10:51.546Z,1.63
2019-01-29T06:15:50.241Z,1.54
2019-01-29T06:20:50.484Z,1.48
2019-01-29T06:25:49.506Z,1.56
2019-01-29T06:30:50.390Z,1.48
2019-01-29T06:35:51.431Z,1.46
2019-01-29T06:40:50.183Z,1.48
2019-01-29T06:45:49.188Z,1.54
2019-01-29T06:50:48.556Z,1.54
2019-01-29T06:55:48.203Z,1.48
2019-01-29T07:00:47.252Z,1.55
2019-01-29T07:05:48.255Z,1.55
2019-01-29T07:10:47.237Z,1.59
2019-01-29T07:15:47.216Z,1.63
2019-01-29T07:20:47.521Z,1.64
2019-01-29T07:25:48.318Z,1.70
2019-01-29T07:30:48.718Z,1.64
2019-01-29T07:35:48.197Z,1.68
2019-01-29T07:40:49.301Z,1.69
2019-01-29T07:45:49.579Z,1.78
2019-01-29T07:50:48.586Z,1.80
2019-01-29T07:55:48.726Z,1.82
2019-01-29T08:00:48.470Z,1.85
2019-01-29T08:05:49.479Z,1.85
2019-01-29T08:10:48.379Z,1.90
2019-01-29T08:15:49.109Z,1.90
2019-01-29T08:20:47.436Z,1.81
2019-01-29T08:25:48.232Z,1.89
2019-01-29T08:30:47.428Z,2.00
2019-01-29T08:35:47.680Z,2.06
2019-01-29T08:40:47.628Z,2.05
2019-01-29T08:45:46.707Z,2.24
2019-01-29T08:50:45.874Z,2.43
2019-01-29T08:55:45.416Z,2.41
2019-01-29T09:05:44.414Z,2.49
2019-01-29T09:10:43.796Z,2.49
2019-01-29T09:15:43.612Z,2.49
2019-01-29T09:20:43.650Z,2.59
2019-01-29T09:25:42.963Z,2.52
2019-01-29T09:30:43.949Z,2.66
2019-01-29T09:35:43.646Z,2.70
2019-01-29T09:40:42.512Z,2.74
2019-01-29T09:45:43.485Z,2.75
2019-01-29T09:50:44.477Z,2.80
2019-01-29T09:55:44.459Z,2.83
2019-01-29T10:00:44.712Z,2.93
2019-01-29T10:05:44.449Z,3.08
2019-01-29T10:10:43.635Z,3.17
2019-01-29T10:15:42.893Z,3.28
2019-01-29T10:20:42.472Z,3.36
2019-01-29T10:25:42.110Z,3.34
2019-01-29T10:30:41.450Z,3.46
2019-01-29T10:35:41.277Z,3.25
2019-01-29T10:40:40.441Z,3.46
2019-01-29T10:45:39.497Z,3.77
2019-01-29T10:50:38.453Z,3.80
2019-01-29T10:55:46.771Z,3.67
2019-01-29T11:00:37.487Z,3.86
2019-01-29T11:05:37.460Z,3.91
2019-01-29T11:10:36.468Z,4.08
2019-01-29T11:15:36.510Z,4.17
2019-01-29T11:20:37.494Z,4.12
2019-01-29T11:25:38.764Z,3.93
2019-01-29T11:30:39.522Z,3.80
2019-01-29T11:35:40.742Z,3.80
2019-01-29T11:40:40.506Z,3.85
2019-01-29T11:45:39.699Z,3.76
2019-01-29T11:50:39.582Z,3.87
2019-01-29T11:55:39.575Z,3.90
2019-01-29T12:00:38.714Z,3.66
2019-01-29T12:05:37.784Z,3.76
2019-01-29T12:10:36.553Z,3.63
2019-01-29T12:15:36.571Z,3.87
2019-01-29T12:20:36.525Z,3.96
2019-01-29T12:25:36.559Z,3.88
2019-01-29T12:30:35.884Z,3.93
2019-01-29T12:35:35.677Z,4.13
2019-01-29T12:40:36.998Z,3.94
2019-01-29T12:45:35.530Z,3.96
2019-01-29T12:50:36.593Z,3.90
2019-01-29T12:55:35.629Z,3.75
2019-01-29T13:00:35.578Z,3.73
2019-01-29T13:05:34.640Z,3.83
2019-01-29T13:10:34.560Z,3.72
2019-01-29T13:15:34.609Z,3.74
2019-01-29T13:20:34.700Z,3.90
2019-01-29T13:25:34.567Z,4.21
2019-01-29T13:30:34.596Z,4.36
2019-01-29T13:35:34.626Z,4.28
2019-01-29T13:40:33.622Z,4.46
2019-01-29T13:45:33.639Z,4.39
2019-01-29T13:50:32.993Z,4.38
2019-01-29T13:55:33.607Z,4.39
2019-01-29T14:00:32.787Z,4.36
2019-01-29T14:05:32.675Z,4.11
2019-01-29T14:10:33.564Z,4.02
2019-01-29T14:15:32.611Z,4.09
2019-01-29T14:20:33.624Z,4.00
2019-01-29T14:25:33.591Z,4.02
2019-01-29T14:30:33.650Z,4.00
2019-01-29T14:35:33.726Z,3.96
2019-01-29T14:40:33.635Z,3.92
2019-01-29T14:45:33.646Z,3.76
2019-01-29T14:50:33.628Z,3.79
2019-01-29T14:55:33.668Z,3.72
2019-01-29T15:00:32.855Z,3.64
2019-01-29T15:05:32.668Z,3.77
2019-01-29T15:10:33.623Z,3.68
2019-01-29T15:15:33.683Z,3.63
2019-01-29T15:20:33.681Z,3.63
2019-01-29T15:25:33.653Z,3.60
2019-01-29T15:30:32.974Z,3.48
2019-01-29T15:35:31.616Z,3.41
2019-01-29T15:40:30.683Z,3.36
2019-01-29T15:45:30.030Z,3.25
2019-01-29T15:50:31.075Z,3.04
2019-01-29T15:55:28.682Z,2.97
2019-01-29T16:00:27.687Z,2.85
2019-01-29T16:05:27.059Z,2.76
2019-01-29T16:10:26.768Z,2.68
2019-01-29T16:15:25.598Z,2.55
2019-01-29T16:20:24.944Z,2.55
2019-01-29T16:25:24.775Z,2.38
2019-01-29T16:30:23.672Z,5.06
2019-01-29T16:35:22.923Z,1.47
2019-01-29T16:40:22.786Z,1.30
2019-01-29T16:45:22.648Z,1.13
2019-01-29T16:50:21.734Z,1.07
2019-01-29T16:55:21.631Z,0.89
2019-01-29T17:00:20.665Z,0.63
2019-01-29T17:05:19.713Z,0.81
2019-01-29T17:10:18.973Z,0.69
2019-01-29T17:15:18.669Z,0.37
2019-01-29T17:20:17.842Z,0.12
2019-01-29T17:25:16.774Z,0.11
2019-01-29T17:30:16.703Z,0.23
2019-01-29T17:35:17.704Z,-0.11
2019-01-29T17:40:16.797Z,-0.59
2019-01-29T17:45:16.121Z,-0.54
2019-01-29T17:50:15.703Z,-0.59
2019-01-29T17:55:15.755Z,-0.65
2019-01-29T18:00:15.804Z,-0.57
2019-01-29T18:05:15.747Z,-0.76
2019-01-29T18:10:14.847Z,-0.62
2019-01-29T18:15:14.755Z,-0.74
2019-01-29T18:20:13.806Z,-0.77
2019-01-29T18:25:13.049Z,-0.98
2019-01-29T18:30:11.799Z,-0.79
2019-01-29T18:35:11.815Z,-0.97
2019-01-29T18:40:12.998Z,-1.06
2019-01-29T18:45:11.749Z,-1.28
2019-01-29T18:50:11.047Z,-1.50
2019-01-29T18:55:10.199Z,-1.24
2019-01-29T19:00:09.089Z,-1.00
2019-01-29T19:05:08.792Z,-1.05
2019-01-29T19:10:08.703Z,-1.31
2019-01-29T19:15:09.107Z,-1.40
2019-01-29T19:20:07.850Z,-1.21
2019-01-29T19:25:08.832Z,-1.12
2019-01-29T19:30:09.286Z,-1.27
2019-01-29T19:35:09.862Z,-0.93
2019-01-29T19:40:09.251Z,-1.02
2019-01-29T19:50:08.889Z,-0.79
2019-01-29T19:55:08.862Z,-0.86
2019-01-29T20:00:09.835Z,-0.95
2019-01-29T20:05:09.850Z,-0.74
2019-01-29T20:10:09.818Z,-0.72
2019-01-29T20:15:08.867Z,-0.80
2019-01-29T20:20:08.858Z,-0.82
2019-01-29T20:25:08.994Z,-0.75
2019-01-29T20:30:08.872Z,-0.80
2019-01-29T20:35:07.832Z,-0.80
2019-01-29T20:40:07.134Z,-0.90
2019-01-29T20:45:06.973Z,-0.69
2019-01-29T20:50:06.892Z,-0.82
2019-01-29T20:55:06.049Z,-0.93
2019-01-29T21:00:05.238Z,-0.72
2019-01-29T21:05:04.906Z,-0.96
2019-01-29T21:10:03.931Z,-0.65
2019-01-29T21:15:03.908Z,-0.49
2019-01-29T21:20:02.941Z,-0.14
2019-01-29T21:25:02.940Z,-0.48
2019-01-29T21:30:02.051Z,-0.38
2019-01-29T21:35:01.309Z,-0.62
2019-01-29T21:40:00.928Z,-0.55
2019-01-29T21:45:00.952Z,-0.94
2019-01-29T21:50:11.080Z,-0.34
2019-01-29T21:55:00.246Z,-0.24
2019-01-29T21:59:58.892Z,-0.32
2019-01-29T22:04:58.905Z,-0.31
2019-01-29T22:09:59.022Z,-0.15
2019-01-29T22:14:58.279Z,-0.02
2019-01-29T22:19:59.200Z,-0.14
2019-01-29T22:24:59.246Z,-0.16
2019-01-29T22:29:57.917Z,0.06
2019-01-29T22:34:57.050Z,-0.30
2019-01-29T22:39:56.935Z,-0.31
2019-01-29T22:44:55.991Z,-0.10
2019-01-29T22:49:55.933Z,0.11
2019-01-29T22:54:55.390Z,-0.17
2019-01-29T22:59:56.053Z,-0.11
2019-01-29T23:04:55.951Z,-0.13
2019-01-29T23:09:55.959Z,-0.28
2019-01-29T23:14:55.960Z,-0.32
2019-01-29T23:19:56.178Z,-0.49
2019-01-29T23:24:55.405Z,-0.14
2019-01-29T23:29:55.055Z,-0.29
2019-01-29T23:34:55.110Z,-0.63
2019-01-29T23:39:56.190Z,-0.60
2019-01-29T23:49:55.004Z,-0.59
2019-01-29T23:54:54.143Z,-0.56
2019-01-29T23:59:54.155Z,-0.80
